createdAt,value
2023-05-06T00:01:57.179Z,101254.44
2023-05-06T00:04:24.104Z,101262.09
2023-05-06T00:06:51.415Z,101252.22
2023-05-06T00:09:17.957Z,101256.38
2023-05-06T00:11:45.836Z,101253.53
2023-05-06T00:14:12.481Z,101258.13
2023-05-06T00:16:39.096Z,101268.56
2023-05-06T00:19:06.197Z,101271.78
2023-05-06T00:21:32.739Z,101264.53
2023-05-06T00:23:59.278Z,101250.44
2023-05-06T00:26:25.773Z,101250.81
2023-05-06T00:28:52.278Z,101249.63
2023-05-06T00:31:18.797Z,101240.41
2023-05-06T00:33:45.311Z,101237.41
2023-05-06T00:36:11.848Z,101235.34
2023-05-06T00:38:38.278Z,101246.19
2023-05-06T00:41:05.128Z,101244.59
2023-05-06T00:43:31.600Z,101239.00
2023-05-06T00:45:58.184Z,101229.16
2023-05-06T00:48:24.783Z,101229.78
2023-05-06T00:50:51.348Z,101232.56
2023-05-06T00:53:21.725Z,101222.16
2023-05-06T00:55:49.803Z,101220.50
2023-05-06T00:58:16.300Z,101216.31
2023-05-06T01:00:42.948Z,101215.31
2023-05-06T01:03:09.581Z,101221.38
2023-05-06T01:05:51.337Z,101216.75
2023-05-06T01:08:27.545Z,101228.16
2023-05-06T01:11:21.622Z,101214.72
2023-05-06T01:14:16.173Z,101217.28
2023-05-06T01:16:42.825Z,101200.03
2023-05-06T01:19:16.350Z,101201.84
2023-05-06T01:21:46.170Z,101204.06
2023-05-06T01:24:12.654Z,101197.63
2023-05-06T01:26:39.114Z,101195.03
2023-05-06T01:29:05.719Z,101198.06
2023-05-06T01:31:43.021Z,101200.84
2023-05-06T01:34:17.720Z,101203.47
2023-05-06T01:37:23.185Z,101197.63
2023-05-06T01:39:50.703Z,101199.81
2023-05-06T01:42:18.257Z,101204.63
2023-05-06T01:44:45.512Z,101201.78
2023-05-06T01:47:12.912Z,101191.13
2023-05-06T01:49:39.796Z,101200.97
2023-05-06T01:52:06.377Z,101205.41
2023-05-06T01:54:32.903Z,101198.94
2023-05-06T01:56:59.397Z,101195.69
2023-05-06T01:59:25.908Z,101199.66
2023-05-06T02:01:52.445Z,101192.47
2023-05-06T02:04:18.939Z,101198.50
2023-05-06T02:06:45.408Z,101192.91
2023-05-06T02:09:11.893Z,101193.28
2023-05-06T02:11:38.356Z,101192.47
2023-05-06T02:14:04.854Z,101186.19
2023-05-06T02:16:31.478Z,101178.38
2023-05-06T02:18:57.979Z,101187.25
2023-05-06T02:21:24.476Z,101176.44
2023-05-06T02:23:50.903Z,101170.47
2023-05-06T02:26:17.409Z,101183.94
2023-05-06T02:28:43.868Z,101175.84
2023-05-06T02:31:14.506Z,101175.44
2023-05-06T02:33:41.107Z,101178.47
2023-05-06T02:36:07.671Z,101174.03
2023-05-06T02:38:34.128Z,101183.31
2023-05-06T02:41:00.627Z,101180.94
2023-05-06T02:43:27.183Z,101181.94
2023-05-06T02:45:53.858Z,101174.66
2023-05-06T02:48:20.505Z,101174.28
2023-05-06T02:50:47.061Z,101163.84
2023-05-06T02:53:13.568Z,101167.53
2023-05-06T02:55:40.151Z,101166.53
2023-05-06T02:58:06.610Z,101176.34
2023-05-06T03:00:33.110Z,101169.94
2023-05-06T03:02:59.635Z,101157.53
2023-05-06T03:05:26.148Z,101166.78
2023-05-06T03:07:52.763Z,101159.50
2023-05-06T03:10:19.326Z,101164.38
2023-05-06T03:12:45.905Z,101167.75
2023-05-06T03:15:12.609Z,101161.94
2023-05-06T03:17:39.339Z,101165.16
2023-05-06T03:20:08.308Z,101162.00
2023-05-06T03:22:34.838Z,101160.75
2023-05-06T03:25:01.374Z,101166.22
2023-05-06T03:27:27.959Z,101160.19
2023-05-06T03:29:54.447Z,101159.75
2023-05-06T03:32:21.015Z,101169.19
2023-05-06T03:34:47.473Z,101166.78
2023-05-06T03:37:13.968Z,101166.59
2023-05-06T03:39:40.505Z,101164.81
2023-05-06T03:42:09.238Z,101173.59
2023-05-06T03:44:36.320Z,101169.38
2023-05-06T03:47:02.877Z,101164.38
2023-05-06T03:49:29.418Z,101156.72
2023-05-06T03:51:56.158Z,101154.38
2023-05-06T03:54:22.924Z,101158.78
2023-05-06T03:56:49.348Z,101158.34
2023-05-06T03:59:15.816Z,101156.16
2023-05-06T04:01:42.480Z,101149.50
2023-05-06T04:04:09.067Z,101154.97
2023-05-06T04:06:35.556Z,101165.78
2023-05-06T04:09:01.972Z,101167.41
2023-05-06T04:11:29.814Z,101163.16
2023-05-06T04:13:56.539Z,101169.63
2023-05-06T04:16:23.206Z,101166.63
2023-05-06T04:18:51.510Z,101153.56
2023-05-06T04:21:18.535Z,101159.75
2023-05-06T04:23:45.064Z,101161.50
2023-05-06T04:26:11.551Z,101159.47
2023-05-06T04:28:38.145Z,101157.72
2023-05-06T04:31:04.960Z,101157.75
2023-05-06T04:33:32.752Z,101158.47
2023-05-06T04:36:00.335Z,101169.41
2023-05-06T04:38:30.481Z,101179.06
2023-05-06T04:40:57.400Z,101163.44
2023-05-06T04:43:23.982Z,101164.44
2023-05-06T04:45:50.551Z,101159.91
2023-05-06T04:48:18.821Z,101161.84
2023-05-06T04:50:46.647Z,101164.06
2023-05-06T04:53:13.531Z,101161.28
2023-05-06T04:55:40.282Z,101164.25
2023-05-06T04:58:07.437Z,101171.88
2023-05-06T05:00:34.532Z,101169.84
2023-05-06T05:03:02.034Z,101173.66
2023-05-06T05:05:29.156Z,101176.09
2023-05-06T05:07:56.067Z,101173.03
2023-05-06T05:10:22.530Z,101171.44
2023-05-06T05:12:49.024Z,101170.25
2023-05-06T05:15:15.655Z,101169.28
2023-05-06T05:17:42.210Z,101157.66
2023-05-06T05:20:09.193Z,101157.56
2023-05-06T05:22:35.714Z,101172.38
2023-05-06T05:25:02.234Z,101176.84
2023-05-06T05:27:28.736Z,101170.25
2023-05-06T05:29:55.221Z,101164.44
2023-05-06T05:32:21.953Z,101180.06
2023-05-06T05:34:48.576Z,101173.44
2023-05-06T05:37:15.065Z,101172.00
2023-05-06T05:39:41.581Z,101178.66
2023-05-06T05:42:08.067Z,101178.59
2023-05-06T05:44:34.643Z,101170.44
2023-05-06T05:47:02.287Z,101173.84
2023-05-06T05:49:29.743Z,101167.59
2023-05-06T05:51:56.298Z,101168.97
2023-05-06T05:54:22.788Z,101185.63
2023-05-06T05:56:50.466Z,101165.00
2023-05-06T05:59:17.069Z,101167.97
2023-05-06T06:01:43.654Z,101158.34
2023-05-06T06:04:10.519Z,101166.34
2023-05-06T06:06:37.232Z,101152.44
2023-05-06T06:09:04.283Z,101157.03
2023-05-06T06:11:30.785Z,101161.00
2023-05-06T06:13:57.237Z,101168.25
2023-05-06T06:16:23.875Z,101167.44
2023-05-06T06:18:50.526Z,101159.19
2023-05-06T06:21:17.002Z,101162.53
2023-05-06T06:23:43.444Z,101158.78
2023-05-06T06:26:12.226Z,101155.78
2023-05-06T06:28:39.367Z,101159.19
2023-05-06T06:31:05.932Z,101156.16
2023-05-06T06:33:32.452Z,101158.94
2023-05-06T06:35:59.075Z,101145.56
2023-05-06T06:38:26.000Z,101147.16
2023-05-06T06:40:52.727Z,101143.41
2023-05-06T06:43:20.001Z,101141.72
2023-05-06T06:45:49.833Z,101141.59
2023-05-06T06:48:16.833Z,101146.34
2023-05-06T06:50:43.406Z,101149.78
2023-05-06T06:53:10.902Z,101147.38
2023-05-06T06:55:37.545Z,101142.34
2023-05-06T06:58:04.079Z,101152.50
2023-05-06T07:00:30.681Z,101147.91
2023-05-06T07:02:57.199Z,101149.53
2023-05-06T07:05:23.620Z,101142.16
2023-05-06T07:07:50.059Z,101148.94
2023-05-06T07:10:16.595Z,101149.91
2023-05-06T07:12:43.318Z,101150.06
2023-05-06T07:15:10.707Z,101153.88
2023-05-06T07:17:37.649Z,101152.06
2023-05-06T07:20:04.810Z,101155.91
2023-05-06T07:22:31.499Z,101147.75
2023-05-06T07:24:58.014Z,101158.34
2023-05-06T07:27:24.516Z,101158.06
2023-05-06T07:29:51.227Z,101162.22
2023-05-06T07:32:17.808Z,101153.69
2023-05-06T07:34:44.386Z,101151.44
2023-05-06T07:37:10.980Z,101152.72
2023-05-06T07:39:37.464Z,101152.78
2023-05-06T07:42:04.048Z,101164.78
2023-05-06T07:44:30.562Z,101169.13
2023-05-06T07:46:57.269Z,101167.59
2023-05-06T07:49:24.135Z,101175.84
2023-05-06T07:51:51.131Z,101176.13
2023-05-06T07:54:17.710Z,101175.13
2023-05-06T07:56:44.209Z,101191.44
2023-05-06T07:59:11.825Z,101190.09
2023-05-06T08:01:38.353Z,101186.34
2023-05-06T08:04:05.120Z,101191.59
2023-05-06T08:06:32.292Z,101192.06
2023-05-06T08:08:59.042Z,101192.69
2023-05-06T08:11:25.705Z,101195.75
2023-05-06T08:13:52.305Z,101193.25
2023-05-06T08:16:19.172Z,101195.47
2023-05-06T08:18:45.748Z,101196.91
2023-05-06T08:21:12.258Z,101191.00
2023-05-06T08:23:38.742Z,101197.47
2023-05-06T08:26:05.306Z,101194.94
2023-05-06T08:28:32.107Z,101211.25
2023-05-06T08:30:58.582Z,101199.44
2023-05-06T08:33:25.155Z,101204.72
2023-05-06T08:35:51.689Z,101192.16
2023-05-06T08:38:18.237Z,101198.00
2023-05-06T08:40:45.400Z,101193.50
2023-05-06T08:43:14.575Z,101194.38
2023-05-06T08:45:42.026Z,101185.75
2023-05-06T08:48:09.230Z,101181.63
2023-05-06T08:50:42.041Z,101185.41
2023-05-06T08:53:14.991Z,101184.38
2023-05-06T08:55:42.911Z,101193.28
2023-05-06T08:58:13.350Z,101205.22
2023-05-06T09:00:40.330Z,101197.50
2023-05-06T09:03:06.965Z,101186.03
2023-05-06T09:05:33.658Z,101168.69
2023-05-06T09:08:00.402Z,101175.44
2023-05-06T09:10:32.177Z,101181.16
2023-05-06T09:12:59.024Z,101183.84
2023-05-06T09:15:27.848Z,101187.63
2023-05-06T09:17:55.423Z,101186.44
2023-05-06T09:20:22.266Z,101181.28
2023-05-06T09:22:49.161Z,101180.59
2023-05-06T09:25:15.957Z,101172.69
2023-05-06T09:27:42.493Z,101162.59
2023-05-06T09:30:12.255Z,101163.47
2023-05-06T09:32:40.526Z,101161.22
2023-05-06T09:35:08.707Z,101161.72
2023-05-06T09:37:35.384Z,101165.31
2023-05-06T09:40:01.965Z,101166.06
2023-05-06T09:42:29.962Z,101168.03
2023-05-06T09:45:01.107Z,101167.78
2023-05-06T09:47:34.192Z,101167.28
2023-05-06T09:50:04.493Z,101168.47
2023-05-06T09:52:31.659Z,101177.03
2023-05-06T09:54:58.514Z,101172.91
2023-05-06T09:57:25.871Z,101175.59
2023-05-06T09:59:54.121Z,101168.53
2023-05-06T10:02:23.452Z,101162.78
2023-05-06T10:04:51.185Z,101148.94
2023-05-06T10:07:22.752Z,101142.66
2023-05-06T10:09:53.371Z,101138.31
2023-05-06T10:12:20.306Z,101141.69
2023-05-06T10:14:48.436Z,101136.28
2023-05-06T10:17:18.461Z,101122.44
2023-05-06T10:19:46.587Z,101137.25
2023-05-06T10:22:19.416Z,101134.72
2023-05-06T10:25:23.754Z,101116.00
2023-05-06T10:27:50.850Z,101121.78
2023-05-06T10:30:18.974Z,101118.53
2023-05-06T10:32:46.113Z,101121.19
2023-05-06T10:35:22.613Z,101124.13
2023-05-06T10:37:51.735Z,101107.13
2023-05-06T10:40:20.004Z,101102.69
2023-05-06T10:42:46.573Z,101097.41
2023-05-06T10:45:15.329Z,101086.13
2023-05-06T10:47:57.588Z,101093.16
2023-05-06T10:50:28.992Z,101088.38
2023-05-06T10:52:59.134Z,101091.81
2023-05-06T10:55:29.418Z,101095.03
2023-05-06T10:57:57.382Z,101077.81
2023-05-06T11:00:24.501Z,101074.78
2023-05-06T11:02:56.889Z,101093.00
2023-05-06T11:05:23.964Z,101089.13
2023-05-06T11:07:52.006Z,101093.25
2023-05-06T11:10:32.929Z,101106.25
2023-05-06T11:13:18.798Z,101096.75
2023-05-06T11:15:46.406Z,101106.59
2023-05-06T11:18:28.230Z,101106.88
2023-05-06T11:21:03.801Z,101114.41
2023-05-06T11:23:42.475Z,101120.78
2023-05-06T11:26:10.201Z,101123.03
2023-05-06T11:28:36.781Z,101129.63
2023-05-06T11:31:03.424Z,101133.16
2023-05-06T11:33:36.845Z,101149.47
2023-05-06T11:36:04.513Z,101151.88
2023-05-06T11:38:45.249Z,101155.56
2023-05-06T11:41:12.933Z,101161.41
2023-05-06T11:43:39.682Z,101160.06
2023-05-06T11:46:06.470Z,101167.41
2023-05-06T11:48:33.038Z,101166.22
2023-05-06T11:51:04.050Z,101165.06
2023-05-06T11:53:30.563Z,101167.66
2023-05-06T11:55:57.148Z,101170.06
2023-05-06T11:58:28.763Z,101175.22
2023-05-06T12:00:57.806Z,101178.50
2023-05-06T12:03:26.205Z,101179.84
2023-05-06T12:05:53.249Z,101188.47
2023-05-06T12:08:29.775Z,101188.47
2023-05-06T12:10:59.364Z,101193.28
2023-05-06T12:13:27.056Z,101196.69
2023-05-06T12:15:55.822Z,101197.84
2023-05-06T12:18:24.077Z,101206.44
2023-05-06T12:20:54.201Z,101213.31
2023-05-06T12:23:22.087Z,101221.13
2023-05-06T12:26:04.344Z,101229.72
2023-05-06T12:28:33.015Z,101220.38
2023-05-06T12:31:01.010Z,101217.94
2023-05-06T12:33:27.596Z,101231.13
2023-05-06T12:36:00.525Z,101235.53
2023-05-06T12:38:27.227Z,101237.78
2023-05-06T12:40:55.512Z,101241.97
2023-05-06T12:43:32.452Z,101244.41
2023-05-06T12:46:04.801Z,101245.50
2023-05-06T12:48:31.434Z,101243.34
2023-05-06T12:50:58.023Z,101255.44
2023-05-06T12:53:33.192Z,101257.16
2023-05-06T12:55:59.694Z,101263.78
2023-05-06T12:58:26.381Z,101260.91
2023-05-06T13:00:52.977Z,101257.50
2023-05-06T13:03:19.611Z,101265.44
2023-05-06T13:05:48.210Z,101261.38
2023-05-06T13:08:14.777Z,101264.25
2023-05-06T13:10:41.332Z,101268.78
2023-05-06T13:13:07.975Z,101266.50
2023-05-06T13:15:35.031Z,101269.91
2023-05-06T13:18:01.678Z,101267.50
2023-05-06T13:20:28.314Z,101271.38
2023-05-06T13:22:55.376Z,101269.91
2023-05-06T13:25:22.184Z,101268.41
2023-05-06T13:27:48.927Z,101274.94
2023-05-06T13:30:15.732Z,101270.09
2023-05-06T13:32:42.329Z,101263.56
2023-05-06T13:35:09.408Z,101259.63
2023-05-06T13:37:36.107Z,101257.66
2023-05-06T13:40:03.290Z,101262.97
2023-05-06T13:42:29.794Z,101263.59
2023-05-06T13:44:56.405Z,101255.97
2023-05-06T13:47:23.149Z,101262.16
2023-05-06T13:49:49.620Z,101255.28
2023-05-06T13:52:16.082Z,101252.50
2023-05-06T13:54:42.684Z,101250.31
2023-05-06T13:57:09.179Z,101255.06
2023-05-06T13:59:35.629Z,101254.41
2023-05-06T14:02:07.020Z,101254.59
2023-05-06T14:04:35.424Z,101254.78
2023-05-06T14:07:01.942Z,101256.56
2023-05-06T14:09:28.450Z,101248.25
2023-05-06T14:11:54.881Z,101243.25
2023-05-06T14:14:21.399Z,101241.28
2023-05-06T14:16:47.984Z,101244.06
2023-05-06T14:19:14.488Z,101236.72
2023-05-06T14:21:40.975Z,101228.56
2023-05-06T14:24:08.148Z,101238.59
2023-05-06T14:26:34.822Z,101249.22
2023-05-06T14:29:01.388Z,101241.94
2023-05-06T14:31:29.525Z,101241.59
2023-05-06T14:33:56.644Z,101248.31
2023-05-06T14:36:23.148Z,101249.22
2023-05-06T14:38:49.613Z,101248.66
2023-05-06T14:41:16.280Z,101248.38
2023-05-06T14:43:42.986Z,101255.84
2023-05-06T14:46:11.246Z,101245.81
2023-05-06T14:48:37.850Z,101245.81
2023-05-06T14:51:05.012Z,101253.69
2023-05-06T14:53:31.859Z,101262.69
2023-05-06T14:55:58.418Z,101264.03
2023-05-06T14:58:24.948Z,101263.94
2023-05-06T15:00:51.727Z,101257.72
2023-05-06T15:03:18.396Z,101259.34
2023-05-06T15:05:44.918Z,101252.50
2023-05-06T15:08:11.518Z,101253.50
2023-05-06T15:10:38.210Z,101255.84
2023-05-06T15:13:04.927Z,101256.75
2023-05-06T15:15:31.529Z,101261.13
2023-05-06T15:17:58.215Z,101263.41
2023-05-06T15:20:24.857Z,101267.09
2023-05-06T15:22:51.366Z,101256.75
2023-05-06T15:25:30.865Z,101253.31
2023-05-06T15:28:01.314Z,101267.16
2023-05-06T15:30:29.052Z,101257.38
2023-05-06T15:32:55.743Z,101260.69
2023-05-06T15:35:22.478Z,101261.94
2023-05-06T15:37:49.000Z,101260.09
2023-05-06T15:40:15.569Z,101261.97
2023-05-06T15:42:42.172Z,101264.13
2023-05-06T15:45:09.221Z,101256.50
2023-05-06T15:47:37.394Z,101272.44
2023-05-06T15:50:16.450Z,101276.84
2023-05-06T15:52:50.785Z,101282.84
2023-05-06T15:55:17.327Z,101285.97
2023-05-06T15:57:46.088Z,101283.91
2023-05-06T16:00:14.981Z,101289.28
2023-05-06T16:02:41.637Z,101290.44
2023-05-06T16:05:09.736Z,101294.31
2023-05-06T16:07:36.398Z,101289.81
2023-05-06T16:10:03.890Z,101285.78
2023-05-06T16:12:32.708Z,101283.97
2023-05-06T16:15:00.147Z,101277.28
2023-05-06T16:17:26.708Z,101276.28
2023-05-06T16:19:53.258Z,101275.66
2023-05-06T16:22:19.914Z,101274.50
2023-05-06T16:24:46.658Z,101276.84
2023-05-06T16:27:14.021Z,101278.88
2023-05-06T16:29:40.923Z,101274.78
2023-05-06T16:32:07.452Z,101273.81
2023-05-06T16:34:34.049Z,101275.41
2023-05-06T16:37:00.660Z,101274.41
2023-05-06T16:39:28.372Z,101284.31
2023-05-06T16:41:55.340Z,101280.97
2023-05-06T16:44:21.843Z,101292.34
2023-05-06T16:46:48.393Z,101295.31
2023-05-06T16:49:15.119Z,101300.34
2023-05-06T16:51:41.705Z,101307.50
2023-05-06T16:54:08.196Z,101311.63
2023-05-06T16:56:48.114Z,101315.66
2023-05-06T16:59:15.087Z,101311.00
2023-05-06T17:01:41.629Z,101318.34
2023-05-06T17:04:08.142Z,101309.09
2023-05-06T17:06:34.728Z,101312.88
2023-05-06T17:09:01.386Z,101308.63
2023-05-06T17:11:28.027Z,101311.59
2023-05-06T17:13:54.623Z,101308.19
2023-05-06T17:16:21.713Z,101313.38
2023-05-06T17:18:48.565Z,101310.63
2023-05-06T17:21:16.230Z,101309.34
2023-05-06T17:23:42.843Z,101309.34
2023-05-06T17:26:10.536Z,101311.41
2023-05-06T17:28:37.824Z,101310.44
2023-05-06T17:31:04.546Z,101308.81
2023-05-06T17:33:31.360Z,101316.44
2023-05-06T17:35:57.886Z,101315.84
2023-05-06T17:38:24.733Z,101314.72
2023-05-06T17:40:51.320Z,101332.13
2023-05-06T17:43:17.874Z,101325.50
2023-05-06T17:45:44.576Z,101321.44
2023-05-06T17:48:11.235Z,101326.47
2023-05-06T17:50:37.812Z,101336.03
2023-05-06T17:53:04.272Z,101345.97
2023-05-06T17:55:30.889Z,101338.53
2023-05-06T17:57:57.397Z,101339.81
2023-05-06T18:00:24.006Z,101343.38
2023-05-06T18:02:50.798Z,101349.22
2023-05-06T18:05:17.654Z,101350.84
2023-05-06T18:07:44.168Z,101353.78
2023-05-06T18:10:11.137Z,101356.72
2023-05-06T18:12:37.853Z,101356.09
2023-05-06T18:15:05.647Z,101362.94
2023-05-06T18:17:32.172Z,101357.63
2023-05-06T18:19:58.715Z,101369.34
2023-05-06T18:22:25.562Z,101367.09
2023-05-06T18:24:55.243Z,101368.06
2023-05-06T18:27:22.557Z,101373.88
2023-05-06T18:29:49.278Z,101374.53
2023-05-06T18:32:15.889Z,101375.84
2023-05-06T18:34:42.451Z,101375.22
2023-05-06T18:37:09.027Z,101379.63
2023-05-06T18:39:40.563Z,101380.47
2023-05-06T18:42:07.142Z,101385.66
2023-05-06T18:44:33.676Z,101387.63
2023-05-06T18:47:00.224Z,101384.84
2023-05-06T18:49:28.145Z,101393.63
2023-05-06T18:51:54.873Z,101388.78
2023-05-06T18:54:21.461Z,101396.56
2023-05-06T18:56:48.374Z,101403.72
2023-05-06T18:59:14.886Z,101399.00
2023-05-06T19:01:41.670Z,101400.78
2023-05-06T19:04:08.346Z,101396.75
2023-05-06T19:06:36.263Z,101403.72
2023-05-06T19:09:02.898Z,101405.34
2023-05-06T19:11:29.364Z,101400.31
2023-05-06T19:13:55.943Z,101406.31
2023-05-06T19:16:22.611Z,101410.25
2023-05-06T19:18:49.155Z,101409.28
2023-05-06T19:21:15.868Z,101413.66
2023-05-06T19:23:42.429Z,101407.81
2023-05-06T19:26:11.226Z,101400.72
2023-05-06T19:28:39.434Z,101410.94
2023-05-06T19:31:08.315Z,101407.50
2023-05-06T19:33:36.177Z,101407.69
2023-05-06T19:36:03.259Z,101415.47
2023-05-06T19:38:30.104Z,101411.28
2023-05-06T19:40:56.585Z,101417.09
2023-05-06T19:43:23.442Z,101414.50
2023-05-06T19:45:50.040Z,101410.94
2023-05-06T19:48:17.886Z,101409.94
2023-05-06T19:50:44.486Z,101416.94
2023-05-06T19:53:11.489Z,101414.16
2023-05-06T19:55:37.997Z,101424.56
2023-05-06T19:58:04.520Z,101422.75
2023-05-06T20:00:31.353Z,101429.75
2023-05-06T20:02:59.443Z,101427.63
2023-05-06T20:05:32.421Z,101433.78
2023-05-06T20:08:02.258Z,101423.56
2023-05-06T20:10:29.517Z,101434.78
2023-05-06T20:12:57.854Z,101435.75
2023-05-06T20:15:24.747Z,101436.41
2023-05-06T20:17:51.402Z,101435.75
2023-05-06T20:20:19.090Z,101427.94
2023-05-06T20:22:46.302Z,101428.94
2023-05-06T20:25:16.294Z,101435.91
2023-05-06T20:27:46.461Z,101430.72
2023-05-06T20:30:13.332Z,101433.97
2023-05-06T20:32:40.676Z,101437.38
2023-05-06T20:35:07.937Z,101441.75
2023-05-06T20:37:35.346Z,101443.84
2023-05-06T20:40:04.605Z,101438.81
2023-05-06T20:42:31.801Z,101451.19
2023-05-06T20:44:58.833Z,101447.78
2023-05-06T20:47:25.539Z,101451.34
2023-05-06T20:49:52.127Z,101450.03
2023-05-06T20:52:18.966Z,101449.84
2023-05-06T20:54:45.753Z,101448.72
2023-05-06T20:57:13.747Z,101457.19
2023-05-06T20:59:40.253Z,101452.50
2023-05-06T21:02:06.957Z,101460.13
2023-05-06T21:04:33.568Z,101457.34
2023-05-06T21:07:00.043Z,101453.16
2023-05-06T21:09:27.812Z,101457.53
2023-05-06T21:11:55.660Z,101452.50
2023-05-06T21:14:24.780Z,101456.06
2023-05-06T21:16:52.205Z,101455.91
2023-05-06T21:19:19.605Z,101454.94
2023-05-06T21:21:46.247Z,101456.06
2023-05-06T21:24:13.030Z,101464.19
2023-05-06T21:26:40.103Z,101460.63
2023-05-06T21:29:06.750Z,101462.25
2023-05-06T21:31:33.571Z,101464.69
2023-05-06T21:34:00.547Z,101468.25
2023-05-06T21:36:27.259Z,101464.84
2023-05-06T21:39:05.611Z,101469.88
2023-05-06T21:41:32.262Z,101467.09
2023-05-06T21:43:59.023Z,101470.88
2023-05-06T21:46:25.819Z,101466.44
2023-05-06T21:48:52.366Z,101466.63
2023-05-06T21:51:18.844Z,101457.41
2023-05-06T21:53:51.834Z,101465.00
2023-05-06T21:56:18.529Z,101461.44
2023-05-06T21:58:45.334Z,101471.50
2023-05-06T22:01:12.102Z,101468.09
2023-05-06T22:03:38.978Z,101464.84
2023-05-06T22:06:05.997Z,101466.97
2023-05-06T22:08:32.491Z,101470.72
2023-05-06T22:10:59.084Z,101465.53
2023-05-06T22:13:26.824Z,101470.56
2023-05-06T22:15:54.212Z,101476.38
2023-05-06T22:18:20.923Z,101467.78
2023-05-06T22:20:49.272Z,101468.56
2023-05-06T22:23:15.852Z,101469.41
2023-05-06T22:25:42.354Z,101465.19
2023-05-06T22:28:08.949Z,101472.00
2023-05-06T22:30:35.558Z,101473.31
2023-05-06T22:33:02.164Z,101467.78
2023-05-06T22:35:28.706Z,101473.47
2023-05-06T22:37:55.255Z,101470.25
2023-05-06T22:40:21.797Z,101470.88
2023-05-06T22:42:48.434Z,101470.09
2023-05-06T22:45:15.129Z,101466.84
2023-05-06T22:47:41.603Z,101460.50
2023-05-06T22:50:08.960Z,101467.19
2023-05-06T22:52:35.493Z,101473.50
2023-05-06T22:55:02.065Z,101478.03
2023-05-06T22:57:28.730Z,101478.22
2023-05-06T22:59:55.462Z,101480.66
2023-05-06T23:02:22.042Z,101489.94
2023-05-06T23:04:48.622Z,101488.44
2023-05-06T23:07:15.180Z,101490.06
2023-05-06T23:09:41.805Z,101491.38
2023-05-06T23:12:08.339Z,101494.63
2023-05-06T23:14:34.920Z,101497.22
2023-05-06T23:17:01.493Z,101485.06
2023-05-06T23:19:28.048Z,101493.63
2023-05-06T23:21:54.511Z,101495.44
2023-05-06T23:24:21.321Z,101498.34
2023-05-06T23:26:47.786Z,101495.56
2023-05-06T23:29:14.259Z,101496.09
2023-05-06T23:31:40.963Z,101499.66
2023-05-06T23:34:07.507Z,101501.28
2023-05-06T23:36:34.205Z,101502.91
2023-05-06T23:39:00.710Z,101503.88
2023-05-06T23:41:27.654Z,101505.19
2023-05-06T23:43:54.143Z,101502.56
2023-05-06T23:46:20.677Z,101500.16
2023-05-06T23:48:47.233Z,101501.63
2023-05-06T23:51:13.793Z,101504.03
2023-05-06T23:53:40.843Z,101504.22
2023-05-06T23:56:07.523Z,101498.19
2023-05-06T23:58:34.005Z,101499.03
